createdAt,value
2023-09-27T00:02:27.352Z,10.38
2023-09-27T00:06:31.849Z,11.10
2023-09-27T00:10:36.765Z,10.20
2023-09-27T00:14:41.467Z,9.88
2023-09-27T00:18:46.677Z,10.73
2023-09-27T00:22:52.649Z,10.07
2023-09-27T00:26:56.264Z,10.45
2023-09-27T00:31:03.337Z,11.48
2023-09-27T00:35:13.364Z,10.90
2023-09-27T00:39:19.167Z,10.75
2023-09-27T00:43:29.231Z,12.52
2023-09-27T00:47:35.237Z,10.18
2023-09-27T00:51:39.807Z,12.68
2023-09-27T00:55:44.675Z,11.02
2023-09-27T00:59:50.673Z,13.07
2023-09-27T01:04:00.072Z,10.25
2023-09-27T01:08:08.918Z,12.88
2023-09-27T01:12:11.982Z,12.05
2023-09-27T01:16:15.238Z,9.60
2023-09-27T01:20:20.180Z,16.38
2023-09-27T01:24:27.508Z,10.95
2023-09-27T01:28:32.227Z,11.10
2023-09-27T01:32:35.624Z,10.43
2023-09-27T01:36:38.721Z,11.32
2023-09-27T01:40:44.723Z,12.90
2023-09-27T01:44:47.746Z,12.65
2023-09-27T01:48:53.839Z,11.48
2023-09-27T01:53:06.737Z,24.70
2023-09-27T01:57:11.786Z,15.18
2023-09-27T02:01:18.224Z,14.50
2023-09-27T02:05:21.641Z,11.20
2023-09-27T02:09:24.787Z,11.20
2023-09-27T02:13:30.199Z,11.48
2023-09-27T02:17:33.307Z,10.93
2023-09-27T02:21:38.799Z,11.55
2023-09-27T02:25:49.555Z,11.02
2023-09-27T02:29:54.015Z,10.73
2023-09-27T02:33:58.347Z,9.82
2023-09-27T02:38:02.639Z,10.57
2023-09-27T02:42:05.943Z,12.80
2023-09-27T02:46:10.446Z,11.60
2023-09-27T02:50:16.136Z,11.32
2023-09-27T02:54:20.896Z,11.80
2023-09-27T02:58:24.076Z,10.70
2023-09-27T03:02:32.953Z,9.23
2023-09-27T03:06:37.328Z,9.65
2023-09-27T03:10:40.964Z,9.32
2023-09-27T03:14:47.462Z,9.73
2023-09-27T03:18:52.417Z,12.95
2023-09-27T03:22:55.661Z,10.32
2023-09-27T03:26:59.598Z,10.73
2023-09-27T03:31:06.605Z,36.65
2023-09-27T03:35:14.103Z,11.20
2023-09-27T03:39:23.617Z,12.77
2023-09-27T03:43:27.734Z,12.32
2023-09-27T03:47:31.633Z,11.70
2023-09-27T03:51:36.166Z,11.20
2023-09-27T03:55:43.000Z,10.98
2023-09-27T03:59:46.636Z,10.30
2023-09-27T04:03:49.732Z,9.85
2023-09-27T04:07:55.286Z,11.20
2023-09-27T04:12:01.537Z,10.35
2023-09-27T04:16:05.590Z,9.82
2023-09-27T04:20:22.386Z,10.90
2023-09-27T04:24:27.922Z,8.88
2023-09-27T04:28:33.585Z,8.90
2023-09-27T04:32:37.696Z,9.15
2023-09-27T04:36:42.403Z,10.55
2023-09-27T04:40:47.959Z,10.50
2023-09-27T04:44:53.507Z,10.18
2023-09-27T04:48:57.558Z,9.27
2023-09-27T04:53:03.033Z,11.10
2023-09-27T04:57:10.964Z,9.32
2023-09-27T05:01:16.129Z,11.20
2023-09-27T05:05:21.220Z,10.95
2023-09-27T05:09:25.308Z,11.70
2023-09-27T05:13:31.012Z,11.02
2023-09-27T05:17:35.922Z,12.20
2023-09-27T05:21:41.097Z,13.77
2023-09-27T05:25:45.241Z,24.92
2023-09-27T05:29:51.146Z,16.48
2023-09-27T05:33:54.587Z,19.75
2023-09-27T05:37:58.707Z,22.65
2023-09-27T05:42:01.735Z,25.17
2023-09-27T05:46:06.189Z,26.48
2023-09-27T05:50:10.797Z,16.48
2023-09-27T05:54:14.016Z,26.70
2023-09-27T05:58:17.202Z,17.50
2023-09-27T06:02:23.000Z,16.00
2023-09-27T06:06:26.193Z,19.65
2023-09-27T06:10:31.151Z,24.52
2023-09-27T06:14:34.214Z,17.45
2023-09-27T06:18:41.209Z,14.35
2023-09-27T06:22:47.010Z,22.08
2023-09-27T06:26:50.056Z,25.40
2023-09-27T06:30:56.211Z,28.30
2023-09-27T06:35:02.249Z,16.48
2023-09-27T06:39:08.795Z,21.38
2023-09-27T06:43:15.651Z,23.20
2023-09-27T06:47:21.575Z,14.63
2023-09-27T06:51:28.745Z,13.80
2023-09-27T06:55:34.792Z,14.30
2023-09-27T06:59:37.908Z,17.33
2023-09-27T07:03:41.884Z,17.38
2023-09-27T07:07:48.391Z,24.35
2023-09-27T07:11:54.297Z,40.53
2023-09-27T07:15:58.636Z,36.33
2023-09-27T07:20:01.787Z,22.52
2023-09-27T07:24:11.185Z,18.42
2023-09-27T07:28:18.685Z,27.25
2023-09-27T07:32:21.825Z,36.75
2023-09-27T07:36:26.795Z,13.20
2023-09-27T07:40:31.665Z,13.23
2023-09-27T07:44:35.196Z,13.30
2023-09-27T07:48:46.132Z,11.45
2023-09-27T07:52:51.347Z,10.82
2023-09-27T07:56:56.555Z,10.90
2023-09-27T08:00:59.847Z,10.30
2023-09-27T08:05:10.991Z,10.73
2023-09-27T08:09:38.727Z,10.95
2023-09-27T08:13:45.723Z,9.38
2023-09-27T08:17:57.346Z,10.27
2023-09-27T08:22:01.271Z,9.77
2023-09-27T08:26:08.205Z,9.30
2023-09-27T08:30:14.210Z,10.30
2023-09-27T08:34:17.368Z,10.40
2023-09-27T08:38:22.923Z,10.75
2023-09-27T08:42:27.020Z,10.88
2023-09-27T08:46:39.299Z,11.55
2023-09-27T08:50:45.856Z,12.13
2023-09-27T08:54:51.175Z,12.27
2023-09-27T08:58:57.051Z,12.85
2023-09-27T09:03:04.393Z,10.05
2023-09-27T09:07:10.570Z,8.25
2023-09-27T09:11:16.381Z,7.93
2023-09-27T09:15:30.120Z,8.07
2023-09-27T09:19:45.084Z,8.18
2023-09-27T09:23:51.055Z,8.25
2023-09-27T09:28:05.288Z,7.22
2023-09-27T09:32:11.464Z,8.32
2023-09-27T09:36:17.158Z,7.45
2023-09-27T09:40:20.471Z,8.05
2023-09-27T09:44:25.246Z,7.68
2023-09-27T09:48:30.984Z,7.70
2023-09-27T09:52:37.227Z,7.53
2023-09-27T09:56:54.080Z,6.85
2023-09-27T10:01:04.282Z,6.50
2023-09-27T10:05:09.201Z,6.47
2023-09-27T10:09:17.360Z,6.10
2023-09-27T10:13:21.092Z,5.85
2023-09-27T10:17:27.260Z,5.97
2023-09-27T10:21:31.955Z,6.05
2023-09-27T10:25:41.846Z,6.97
2023-09-27T10:29:59.597Z,7.10
2023-09-27T10:34:02.754Z,5.65
2023-09-27T10:38:11.490Z,7.60
2023-09-27T10:42:43.814Z,6.10
2023-09-27T10:46:50.110Z,7.15
2023-09-27T10:50:57.318Z,6.97
2023-09-27T10:55:17.754Z,7.78
2023-09-27T10:59:26.639Z,7.35
2023-09-27T11:03:31.215Z,7.57
2023-09-27T11:07:51.441Z,8.85
2023-09-27T11:12:00.754Z,7.95
2023-09-27T11:16:12.348Z,8.63
2023-09-27T11:20:17.100Z,9.30
2023-09-27T11:24:21.253Z,7.75
2023-09-27T11:28:25.891Z,10.27
2023-09-27T11:32:34.983Z,8.20
2023-09-27T11:36:42.875Z,8.40
2023-09-27T11:40:49.997Z,8.60
2023-09-27T11:45:09.800Z,8.27
2023-09-27T11:49:15.272Z,9.43
2023-09-27T11:53:19.623Z,9.00
2023-09-27T11:57:22.919Z,8.88
2023-09-27T12:01:26.070Z,8.40
2023-09-27T12:05:30.983Z,10.30
2023-09-27T12:09:37.151Z,7.32
2023-09-27T12:13:40.406Z,8.70
2023-09-27T12:17:47.807Z,9.55
2023-09-27T12:21:54.671Z,7.93
2023-09-27T12:26:00.288Z,9.00
2023-09-27T12:30:04.220Z,9.48
2023-09-27T12:34:07.409Z,9.98
2023-09-27T12:38:12.350Z,9.95
2023-09-27T12:42:18.795Z,7.85
2023-09-27T12:46:21.925Z,7.85
2023-09-27T12:50:28.298Z,8.48
2023-09-27T12:54:33.210Z,9.43
2023-09-27T12:58:40.736Z,7.80
2023-09-27T13:02:44.665Z,8.23
2023-09-27T13:06:50.516Z,7.93
2023-09-27T13:10:56.941Z,7.18
2023-09-27T13:15:02.298Z,7.05
2023-09-27T13:19:05.360Z,8.43
2023-09-27T13:23:08.481Z,8.85
2023-09-27T13:27:12.960Z,9.23
2023-09-27T13:31:16.422Z,9.93
2023-09-27T13:35:19.706Z,9.20
2023-09-27T13:39:30.722Z,10.35
2023-09-27T13:43:36.553Z,10.60
2023-09-27T13:47:45.165Z,8.80
2023-09-27T13:51:50.966Z,9.52
2023-09-27T13:56:01.436Z,10.48
2023-09-27T14:00:08.673Z,9.32
2023-09-27T14:04:11.964Z,9.23
2023-09-27T14:08:15.063Z,8.38
2023-09-27T14:12:18.306Z,9.35
2023-09-27T14:16:23.021Z,9.60
2023-09-27T14:20:26.552Z,9.20
2023-09-27T14:24:32.510Z,8.25
2023-09-27T14:28:35.625Z,9.25
2023-09-27T14:32:40.822Z,9.30
2023-09-27T14:36:47.163Z,8.88
2023-09-27T14:40:53.684Z,8.43
2023-09-27T14:44:59.017Z,9.25
2023-09-27T14:49:04.217Z,10.63
2023-09-27T14:53:07.867Z,11.60
2023-09-27T14:57:10.937Z,9.80
2023-09-27T15:01:18.708Z,9.40
2023-09-27T15:05:26.248Z,10.30
2023-09-27T15:09:32.294Z,10.80
2023-09-27T15:13:35.730Z,9.55
2023-09-27T15:17:44.297Z,10.65
2023-09-27T15:21:51.172Z,10.40
2023-09-27T15:25:59.859Z,9.65
2023-09-27T15:30:04.588Z,10.88
2023-09-27T15:34:07.591Z,10.63
2023-09-27T15:38:12.045Z,10.38
2023-09-27T15:42:16.935Z,10.25
2023-09-27T15:46:24.783Z,9.90
2023-09-27T15:50:28.096Z,12.00
2023-09-27T15:54:37.790Z,12.20
2023-09-27T15:58:43.533Z,11.75
2023-09-27T16:02:48.574Z,10.98
2023-09-27T16:06:51.975Z,11.55
2023-09-27T16:10:57.011Z,11.65
2023-09-27T16:15:00.128Z,11.15
2023-09-27T16:19:06.413Z,10.20
2023-09-27T16:23:10.631Z,10.75
2023-09-27T16:27:15.072Z,10.88
2023-09-27T16:31:18.201Z,10.68
2023-09-27T16:35:21.570Z,11.13
2023-09-27T16:39:24.579Z,10.73
2023-09-27T16:43:31.609Z,10.70
2023-09-27T16:47:35.071Z,10.15
2023-09-27T16:51:38.249Z,11.38
2023-09-27T16:55:42.796Z,10.98
2023-09-27T16:59:47.242Z,10.77
2023-09-27T17:03:50.462Z,11.10
2023-09-27T17:07:53.625Z,10.95
2023-09-27T17:11:59.444Z,10.25
2023-09-27T17:16:04.021Z,10.57
2023-09-27T17:20:11.538Z,10.38
2023-09-27T17:24:15.920Z,10.95
2023-09-27T17:28:20.310Z,11.65
2023-09-27T17:32:28.484Z,10.60
2023-09-27T17:36:31.735Z,11.05
2023-09-27T17:40:40.772Z,12.52
2023-09-27T17:44:46.364Z,10.65
2023-09-27T17:48:53.734Z,11.23
2023-09-27T17:53:01.989Z,10.88
2023-09-27T17:57:07.861Z,12.50
2023-09-27T18:01:10.924Z,11.48
2023-09-27T18:05:17.004Z,11.10
2023-09-27T18:09:22.387Z,9.98
2023-09-27T18:13:28.733Z,10.15
2023-09-27T18:17:31.994Z,11.02
2023-09-27T18:21:36.529Z,11.07
2023-09-27T18:25:45.055Z,11.85
2023-09-27T18:29:51.076Z,13.27
2023-09-27T18:33:54.387Z,10.48
2023-09-27T18:38:02.190Z,12.10
2023-09-27T18:42:05.581Z,12.60
2023-09-27T18:46:08.823Z,12.57
2023-09-27T18:50:16.999Z,13.40
2023-09-27T18:54:23.073Z,12.98
2023-09-27T18:58:27.779Z,13.65
2023-09-27T19:02:32.829Z,13.02
2023-09-27T19:06:39.479Z,13.25
2023-09-27T19:10:46.479Z,15.43
2023-09-27T19:14:54.434Z,14.10
2023-09-27T19:19:03.459Z,14.23
2023-09-27T19:23:07.831Z,14.48
2023-09-27T19:27:14.068Z,14.13
2023-09-27T19:31:20.050Z,16.88
2023-09-27T19:35:27.668Z,15.07
2023-09-27T19:39:33.508Z,15.75
2023-09-27T19:43:38.138Z,15.02
2023-09-27T19:47:44.369Z,16.27
2023-09-27T19:51:47.765Z,16.90
2023-09-27T19:55:51.000Z,16.38
2023-09-27T19:59:57.780Z,17.58
2023-09-27T20:04:02.381Z,16.83
2023-09-27T20:08:07.235Z,15.65
2023-09-27T20:12:15.448Z,17.73
2023-09-27T20:16:22.926Z,16.23
2023-09-27T20:20:26.581Z,17.67
2023-09-27T20:24:32.432Z,19.45
2023-09-27T20:28:37.947Z,16.95
2023-09-27T20:32:42.672Z,17.17
2023-09-27T20:36:45.789Z,18.67
2023-09-27T20:40:48.987Z,16.85
2023-09-27T20:44:52.093Z,16.88
2023-09-27T20:48:57.095Z,17.23
2023-09-27T20:53:06.284Z,17.48
2023-09-27T20:57:09.409Z,18.52
2023-09-27T21:01:26.084Z,16.75
2023-09-27T21:05:34.287Z,17.90
2023-09-27T21:09:38.622Z,17.98
2023-09-27T21:13:43.011Z,18.40
2023-09-27T21:17:46.226Z,20.02
2023-09-27T21:21:50.815Z,22.35
2023-09-27T21:25:53.882Z,21.75
2023-09-27T21:29:56.971Z,19.05
2023-09-27T21:34:00.054Z,18.90
2023-09-27T21:38:05.195Z,19.92
2023-09-27T21:42:08.292Z,20.90
2023-09-27T21:46:20.389Z,20.30
2023-09-27T21:50:23.786Z,21.10
2023-09-27T21:54:28.214Z,19.55
2023-09-27T21:58:39.059Z,19.42
2023-09-27T22:02:42.308Z,20.92
2023-09-27T22:06:46.507Z,19.95
2023-09-27T22:10:56.621Z,20.45
2023-09-27T22:14:59.959Z,19.40
2023-09-27T22:19:04.762Z,17.40
2023-09-27T22:23:24.404Z,19.83
2023-09-27T22:27:28.858Z,18.40
2023-09-27T22:31:32.957Z,17.73
2023-09-27T22:35:38.640Z,17.73
2023-09-27T22:39:44.807Z,18.90
2023-09-27T22:43:50.482Z,18.35
2023-09-27T22:47:53.994Z,21.50
2023-09-27T22:51:57.188Z,18.85
2023-09-27T22:56:00.346Z,27.55
2023-09-27T23:00:10.872Z,42.28
2023-09-27T23:04:16.307Z,24.30
2023-09-27T23:08:30.442Z,20.35
2023-09-27T23:12:37.365Z,20.10
2023-09-27T23:16:49.175Z,19.35
2023-09-27T23:20:52.871Z,20.63
2023-09-27T23:25:28.272Z,23.20
2023-09-27T23:29:37.910Z,20.27
2023-09-27T23:33:44.632Z,31.10
2023-09-27T23:37:48.414Z,16.73
2023-09-27T23:41:51.799Z,22.98
2023-09-27T23:45:55.154Z,31.95
2023-09-27T23:50:02.027Z,18.15
2023-09-27T23:54:08.149Z,19.88
2023-09-27T23:58:14.026Z,18.13
